METAR AND TAF INFORMATION
METAR FOR TDPD
ADDS - METARS form results

(0213 UTC 23 January 2019)
Data provider http://aviationweather.gov/metar/data/
 
Forecast for: TDPD (MELVILLE HALL AR, DM)
Text: TAF TDPD 221700Z 2218/2318 11011KT 9999 SCT018
Forecast period: 1800 UTC 22 January 2019 to 1800 UTC 23 January 2019
Forecast type: FROM: standard forecast or significant change
Winds: from the ESE (110 degrees) at 13 MPH (11 knots; 5.7 m/s)
Visibility: 6 or more miles 10+ km)
Ceiling: at least 12,000 feet AGL
Clouds: scattered clouds at 1800 feet AGL
Weather: no significant weather forecast for this period

 AIRPORT MAP

 RUNWAY INFORMATION
Runway 09 Runway length 4777 ft Runway width 148 ft
Runway elevation 71 ft Runway displaced threshold 174 ft Runway heading 70
Runway 27 Runway length 4777 ft Runway width 148 ft
Runway elevation 14 ft Runway displaced threshold 0 ft Runway heading 250

 AIRPORT FREQUENCIES
Type TWR Name TWR Frequency 118.9 MHZ

 AIRPORT NEAR NAVIGATION AIDS
Type NDB Name Melville Hall Frequency 273 KHZ



Powered by Virtual Airlines Manager [v2.6.2]